Terminal Aerodrome Forecast
Issued by NWS

Home | Current Version | Previous Version | Text Only | Print | Product List | Glossary On
Versions: 1 2 3 4 5 6 7 8 9 10 11 12 13 14 15 16 17 18 19 20 21 22 23 24 25 26 27 28 29 30 31
000
FTUS41 KALY 251700
TAFPSF
TAF
KPSF 251730Z 2518/2618 31013G23KT P6SM SCT040
     FM260000 33005KT P6SM BKN100 BKN200
     FM261200 01005KT P6SM VCSH BKN050 OVC100
     FM261500 03005KT 4SM -SN BKN040 OVC080=

USA.gov is the U.S. government's official web portal to all federal, state and local government web resources and services.